Time,TemperatureF,DewpointF,PressureIn,WindDirection,WindDirectionDegrees,WindSpeedMPH,WindSpeedGustMPH,Humidity,HourlyPrecipIn,Conditions,Clouds,dailyrainin,SoftwareType,DateUTC
2013-07-25 00:00:00,47.7,46.6,29.87,NNE,24,0.0,0.0,96,0.00,,---,0.00,VWS V13.01,2013-07-25 04:00:00,
2013-07-25 00:01:00,47.7,46.6,29.87,NNE,24,0.0,0.0,96,0.00,,---,0.00,VWS V13.01,2013-07-25 04:01:00,
2013-07-25 00:02:00,47.7,46.6,29.87,NNE,24,0.0,0.0,96,0.00,,---,0.00,VWS V13.01,2013-07-25 04:02:00,
2013-07-25 00:05:00,47.7,46.6,29.87,NNE,24,0.0,0.0,96,0.00,,---,0.00,VWS V13.01,2013-07-25 04:05:00,
2013-07-25 00:08:00,47.8,46.7,29.87,NNE,24,0.0,0.0,96,0.00,,---,0.00,VWS V13.01,2013-07-25 04:08:00,
2013-07-25 00:13:00,47.8,46.7,29.87,NNE,24,0.0,0.0,96,0.00,,---,0.00,VWS V13.01,2013-07-25 04:13:00,
2013-07-25 00:18:00,47.8,46.7,29.88,NNE,24,0.0,0.0,96,0.00,,---,0.00,VWS V13.01,2013-07-25 04:18:00,
2013-07-25 00:23:00,47.8,46.7,29.88,NNE,24,0.0,0.0,96,0.00,,---,0.00,VWS V13.01,2013-07-25 04:23:00,
2013-07-25 00:28:00,47.6,46.5,29.88,NNE,24,0.0,0.0,96,0.00,,---,0.00,VWS V13.01,2013-07-25 04:28:00,
2013-07-25 00:33:00,47.6,46.8,29.88,NNE,24,0.0,0.0,97,0.00,,---,0.00,VWS V13.01,2013-07-25 04:33:00,
2013-07-25 00:38:00,47.4,46.3,29.88,NNE,24,0.0,0.0,96,0.00,,---,0.00,VWS V13.01,2013-07-25 04:38:00,
2013-07-25 00:43:00,47.3,46.2,29.88,NNE,24,0.0,0.0,96,0.00,,---,0.00,VWS V13.01,2013-07-25 04:43:00,
2013-07-25 00:49:00,47.3,46.2,29.88,NNE,24,0.0,0.0,96,0.00,,---,0.00,VWS V13.01,2013-07-25 04:49:00,
2013-07-25 00:54:00,47.3,46.2,29.88,NNE,24,0.0,0.0,96,0.00,,---,0.00,VWS V13.01,2013-07-25 04:54:00,
2013-07-25 00:59:00,47.5,46.7,29.88,NNE,24,0.0,0.0,97,0.00,,---,0.00,VWS V13.01,2013-07-25 04:59:00,
2013-07-25 01:04:00,48.0,47.2,29.88,NNE,24,0.0,0.0,97,0.00,,---,0.00,VWS V13.01,2013-07-25 05:04:00,
2013-07-25 01:09:00,48.3,47.5,29.88,NNE,24,0.0,1.0,97,0.00,,---,0.00,VWS V13.01,2013-07-25 05:09:00,
2013-07-25 01:15:00,48.1,47.3,29.88,NNE,24,0.0,1.0,97,0.00,,---,0.00,VWS V13.01,2013-07-25 05:15:00,
2013-07-25 01:20:00,47.9,47.1,29.88,NNE,24,0.0,1.0,97,0.00,,---,0.00,VWS V13.01,2013-07-25 05:20:00,
2013-07-25 01:25:00,48.0,47.2,29.89,NNE,24,0.0,1.0,97,0.00,,---,0.00,VWS V13.01,2013-07-25 05:25:00,
2013-07-25 01:30:00,48.1,47.3,29.88,NNE,24,0.0,0.0,97,0.00,,---,0.00,VWS V13.01,2013-07-25 05:30:00,
2013-07-25 01:35:00,48.3,47.5,29.89,NNE,24,0.0,0.0,97,0.00,,---,0.00,VWS V13.01,2013-07-25 05:35:00,
2013-07-25 01:40:00,48.4,47.6,29.89,NNE,24,0.0,0.0,97,0.00,,---,0.00,VWS V13.01,2013-07-25 05:40:00,
2013-07-25 01:46:00,48.5,47.7,29.89,NNE,24,0.0,0.0,97,0.00,,---,0.00,VWS V13.01,2013-07-25 05:46:00,
2013-07-25 01:51:00,48.5,47.7,29.89,NNE,24,0.0,0.0,97,0.00,,---,0.00,VWS V13.01,2013-07-25 05:51:00,
2013-07-25 01:56:00,48.5,47.7,29.89,NNE,24,0.0,0.0,97,0.00,,---,0.00,VWS V13.01,2013-07-25 05:56:00,
2013-07-25 02:01:00,48.4,47.6,29.89,NNE,24,0.0,0.0,97,0.00,,---,0.00,VWS V13.01,2013-07-25 06:01:00,
2013-07-25 02:06:00,48.5,47.7,29.89,NNE,24,0.0,0.0,97,0.00,,---,0.00,VWS V13.01,2013-07-25 06:06:00,
2013-07-25 02:11:00,48.2,47.4,29.89,NNE,24,0.0,0.0,97,0.00,,---,0.00,VWS V13.01,2013-07-25 06:11:00,
2013-07-25 02:16:00,47.8,47.0,29.89,NNE,24,0.0,0.0,97,0.00,,---,0.00,VWS V13.01,2013-07-25 06:16:00,
2013-07-25 02:21:00,47.5,46.7,29.89,NNE,24,0.0,0.0,97,0.00,,---,0.00,VWS V13.01,2013-07-25 06:21:00,
2013-07-25 02:27:00,47.4,46.6,29.89,NNE,24,0.0,0.0,97,0.00,,---,0.00,VWS V13.01,2013-07-25 06:27:00,
2013-07-25 02:32:00,47.4,46.6,29.89,NNE,24,0.0,0.0,97,0.00,,---,0.00,VWS V13.01,2013-07-25 06:32:00,
2013-07-25 02:37:00,47.4,46.9,29.89,NNE,24,0.0,0.0,98,0.00,,---,0.00,VWS V13.01,2013-07-25 06:37:00,
2013-07-25 02:42:00,47.3,46.8,29.89,NNE,24,0.0,0.0,98,0.00,,---,0.00,VWS V13.01,2013-07-25 06:42:00,
2013-07-25 02:47:00,47.4,46.9,29.90,NNE,24,0.0,0.0,98,0.00,,---,0.00,VWS V13.01,2013-07-25 06:47:00,
2013-07-25 02:52:00,47.4,46.9,29.89,NNE,24,0.0,0.0,98,0.00,,---,0.00,VWS V13.01,2013-07-25 06:52:00,
2013-07-25 02:57:00,47.5,47.0,29.89,NNE,24,0.0,0.0,98,0.00,,---,0.00,VWS V13.01,2013-07-25 06:57:00,
2013-07-25 03:02:00,47.4,46.9,29.89,NNE,24,0.0,0.0,98,0.00,,---,0.00,VWS V13.01,2013-07-25 07:02:00,
2013-07-25 03:08:00,47.5,47.0,29.89,NNE,24,0.0,0.0,98,0.00,,---,0.00,VWS V13.01,2013-07-25 07:08:00,
2013-07-25 03:13:00,47.5,47.0,29.90,NNE,24,0.0,0.0,98,0.00,,---,0.00,VWS V13.01,2013-07-25 07:13:00,
2013-07-25 03:18:00,47.6,47.1,29.90,NNE,24,0.0,0.0,98,0.00,,---,0.00,VWS V13.01,2013-07-25 07:18:00,
2013-07-25 03:23:00,47.6,47.1,29.90,NNE,24,0.0,0.0,98,0.00,,---,0.00,VWS V13.01,2013-07-25 07:23:00,
2013-07-25 03:28:00,47.6,47.1,29.90,NNE,24,0.0,0.0,98,0.00,,---,0.00,VWS V13.01,2013-07-25 07:28:00,
2013-07-25 03:33:00,47.6,47.1,29.90,NNE,24,0.0,0.0,98,0.00,,---,0.00,VWS V13.01,2013-07-25 07:33:00,
2013-07-25 03:38:00,47.4,46.9,29.90,NNE,24,0.0,0.0,98,0.00,,---,0.00,VWS V13.01,2013-07-25 07:38:00,
2013-07-25 03:44:00,47.3,46.8,29.90,NNE,24,0.0,0.0,98,0.00,,---,0.00,VWS V13.01,2013-07-25 07:44:00,
2013-07-25 03:49:00,47.3,46.8,29.90,NNE,24,0.0,0.0,98,0.00,,---,0.00,VWS V13.01,2013-07-25 07:49:00,
2013-07-25 03:54:00,47.1,46.6,29.90,NNE,24,0.0,0.0,98,0.00,,---,0.00,VWS V13.01,2013-07-25 07:54:00,
2013-07-25 03:59:00,47.0,46.5,29.90,NNE,24,0.0,0.0,98,0.00,,---,0.00,VWS V13.01,2013-07-25 07:59:00,
2013-07-25 04:04:00,47.0,46.5,29.91,NNE,24,0.0,0.0,98,0.00,,---,0.00,VWS V13.01,2013-07-25 08:04:00,
2013-07-25 04:09:00,47.0,46.5,29.91,NNE,24,0.0,0.0,98,0.00,,---,0.00,VWS V13.01,2013-07-25 08:09:00,
2013-07-25 04:15:00,47.0,46.5,29.91,NNE,24,0.0,0.0,98,0.00,,---,0.00,VWS V13.01,2013-07-25 08:15:00,
2013-07-25 04:20:00,47.0,46.5,29.91,NNE,24,0.0,0.0,98,0.00,,---,0.00,VWS V13.01,2013-07-25 08:20:00,
2013-07-25 04:25:00,47.0,46.5,29.91,NNE,24,0.0,0.0,98,0.00,,---,0.00,VWS V13.01,2013-07-25 08:25:00,
2013-07-25 04:30:00,47.0,46.5,29.91,NNE,24,0.0,0.0,98,0.00,,---,0.00,VWS V13.01,2013-07-25 08:30:00,
2013-07-25 04:35:00,47.0,46.5,29.91,NNE,24,0.0,0.0,98,0.00,,---,0.00,VWS V13.01,2013-07-25 08:35:00,
2013-07-25 04:41:00,47.1,46.6,29.92,NNE,24,0.0,0.0,98,0.00,,---,0.00,VWS V13.01,2013-07-25 08:41:00,
2013-07-25 04:46:00,47.0,46.5,29.92,NNE,24,0.0,1.0,98,0.00,,---,0.00,VWS V13.01,2013-07-25 08:46:00,
2013-07-25 04:51:00,47.0,46.5,29.92,NNE,24,0.0,1.0,98,0.00,,---,0.00,VWS V13.01,2013-07-25 08:51:00,
2013-07-25 04:56:00,47.2,46.7,29.92,NNE,24,0.0,1.0,98,0.00,,---,0.00,VWS V13.01,2013-07-25 08:56:00,
2013-07-25 05:01:00,47.1,46.6,29.92,NNE,24,0.0,0.0,98,0.00,,---,0.00,VWS V13.01,2013-07-25 09:01:00,
2013-07-25 05:06:00,47.1,46.6,29.92,NNE,24,0.0,0.0,98,0.00,,---,0.00,VWS V13.01,2013-07-25 09:06:00,
2013-07-25 05:11:00,47.1,46.6,29.92,NNE,24,0.0,0.0,98,0.00,,---,0.00,VWS V13.01,2013-07-25 09:11:00,
2013-07-25 05:17:00,47.1,46.6,29.93,NNE,24,0.0,0.0,98,0.00,,---,0.00,VWS V13.01,2013-07-25 09:17:00,
2013-07-25 05:22:00,47.2,46.7,29.93,NNE,24,0.0,0.0,98,0.00,,---,0.00,VWS V13.01,2013-07-25 09:22:00,
2013-07-25 05:27:00,47.1,46.6,29.93,NNE,24,0.0,0.0,98,0.00,,---,0.00,VWS V13.01,2013-07-25 09:27:00,
2013-07-25 05:32:00,47.1,46.6,29.94,NNE,24,0.0,0.0,98,0.00,,---,0.00,VWS V13.01,2013-07-25 09:32:00,
2013-07-25 05:37:00,47.1,46.6,29.94,NNE,24,0.0,0.0,98,0.00,,---,0.00,VWS V13.01,2013-07-25 09:37:00,
2013-07-25 05:42:00,47.2,46.7,29.94,NNE,24,0.0,0.0,98,0.00,,---,0.00,VWS V13.01,2013-07-25 09:42:00,
2013-07-25 05:48:00,47.0,46.5,29.94,NNE,24,0.0,0.0,98,0.00,,---,0.00,VWS V13.01,2013-07-25 09:48:00,
2013-07-25 05:53:00,46.7,46.2,29.94,NNE,24,0.0,0.0,98,0.00,,---,0.00,VWS V13.01,2013-07-25 09:53:00,
2013-07-25 05:58:00,46.5,46.0,29.95,NNE,24,0.0,0.0,98,0.00,,---,0.00,VWS V13.01,2013-07-25 09:58:00,
2013-07-25 06:03:00,46.5,46.0,29.94,NNE,24,0.0,0.0,98,0.00,,---,0.00,VWS V13.01,2013-07-25 10:03:00,
2013-07-25 06:08:00,46.6,46.1,29.95,NNE,24,0.0,0.0,98,0.00,,---,0.00,VWS V13.01,2013-07-25 10:08:00,
2013-07-25 06:14:00,46.8,46.3,29.94,NNE,24,0.0,0.0,98,0.01,,---,0.01,VWS V13.01,2013-07-25 10:14:00,
2013-07-25 06:19:00,46.7,46.2,29.94,NNE,24,0.0,0.0,98,0.01,,---,0.01,VWS V13.01,2013-07-25 10:19:00,
2013-07-25 06:24:00,46.6,46.1,29.94,NNE,24,0.0,0.0,98,0.01,,---,0.01,VWS V13.01,2013-07-25 10:24:00,
2013-07-25 06:29:00,46.6,46.1,29.94,NNE,24,0.0,0.0,98,0.01,,---,0.01,VWS V13.01,2013-07-25 10:29:00,
2013-07-25 06:34:00,46.3,45.8,29.94,NNE,24,0.0,0.0,98,0.01,,---,0.01,VWS V13.01,2013-07-25 10:34:00,
2013-07-25 06:40:00,46.0,45.5,29.94,NNE,24,0.0,0.0,98,0.01,,---,0.01,VWS V13.01,2013-07-25 10:40:00,
2013-07-25 06:45:00,45.6,45.1,29.94,NNE,24,0.0,0.0,98,0.01,,---,0.01,VWS V13.01,2013-07-25 10:45:00,
2013-07-25 06:50:00,45.8,45.3,29.94,NNE,24,0.0,0.0,98,0.01,,---,0.01,VWS V13.01,2013-07-25 10:50:00,
2013-07-25 06:55:00,45.9,45.4,29.94,NNE,24,0.0,0.0,98,0.01,,---,0.01,VWS V13.01,2013-07-25 10:55:00,
2013-07-25 07:01:00,45.8,45.3,29.94,NNE,24,0.0,0.0,98,0.01,,---,0.01,VWS V13.01,2013-07-25 11:01:00,
2013-07-25 07:06:00,45.7,45.2,29.94,NNE,24,0.0,0.0,98,0.01,,---,0.01,VWS V13.01,2013-07-25 11:06:00,
2013-07-25 07:12:00,45.8,45.3,29.94,NNE,24,0.0,0.0,98,0.01,,---,0.01,VWS V13.01,2013-07-25 11:12:00,
2013-07-25 07:17:00,45.8,45.3,29.94,NNE,24,0.0,0.0,98,0.01,,---,0.01,VWS V13.01,2013-07-25 11:17:00,
2013-07-25 07:22:00,45.9,45.4,29.94,NNE,24,0.0,0.0,98,0.01,,---,0.01,VWS V13.01,2013-07-25 11:22:00,
2013-07-25 07:27:00,46.0,45.5,29.95,NNE,24,0.0,0.0,98,0.01,,---,0.01,VWS V13.01,2013-07-25 11:27:00,
2013-07-25 07:32:00,46.2,45.7,29.95,NNE,24,0.0,0.0,98,0.00,,---,0.01,VWS V13.01,2013-07-25 11:32:00,
2013-07-25 07:38:00,46.3,45.8,29.95,NNE,24,0.0,0.0,98,0.00,,---,0.01,VWS V13.01,2013-07-25 11:38:00,
2013-07-25 07:43:00,46.5,46.0,29.95,NNE,24,0.0,0.0,98,0.00,,---,0.01,VWS V13.01,2013-07-25 11:43:00,
2013-07-25 07:48:00,46.7,46.2,29.95,NNE,24,0.0,0.0,98,0.00,,---,0.01,VWS V13.01,2013-07-25 11:48:00,
2013-07-25 07:53:00,46.8,46.3,29.95,NNE,24,0.0,0.0,98,0.00,,---,0.01,VWS V13.01,2013-07-25 11:53:00,
2013-07-25 07:58:00,46.9,46.4,29.95,NNE,24,0.0,0.0,98,0.00,,---,0.01,VWS V13.01,2013-07-25 11:58:00,
2013-07-25 08:04:00,46.9,46.4,29.96,NNE,24,0.0,0.0,98,0.00,,---,0.01,VWS V13.01,2013-07-25 12:04:00,
2013-07-25 08:09:00,47.2,46.9,29.96,NNE,24,0.0,0.0,99,0.00,,---,0.01,VWS V13.01,2013-07-25 12:09:00,
2013-07-25 08:14:00,47.7,47.4,29.96,NNE,24,0.0,0.0,99,0.00,,---,0.01,VWS V13.01,2013-07-25 12:14:00,
2013-07-25 08:19:00,48.1,47.6,29.97,NNE,24,0.0,1.0,98,0.00,,---,0.01,VWS V13.01,2013-07-25 12:19:00,
2013-07-25 08:24:00,48.5,48.2,29.97,NNE,24,0.0,1.0,99,0.00,,---,0.01,VWS V13.01,2013-07-25 12:24:00,
2013-07-25 08:29:00,48.5,48.2,29.97,NNE,23,0.0,1.0,99,0.00,,---,0.01,VWS V13.01,2013-07-25 12:29:00,
2013-07-25 08:35:00,48.5,48.2,29.97,NNE,23,0.0,0.0,99,0.00,,---,0.01,VWS V13.01,2013-07-25 12:35:00,
2013-07-25 08:40:00,49.0,48.7,29.97,NE,41,0.0,0.0,99,0.00,,---,0.01,VWS V13.01,2013-07-25 12:40:00,
2013-07-25 08:45:00,49.6,49.1,29.97,NE,42,0.0,1.0,98,0.00,,---,0.01,VWS V13.01,2013-07-25 12:45:00,
2013-07-25 08:50:00,50.4,50.1,29.97,NE,42,0.0,1.0,99,0.00,,---,0.01,VWS V13.01,2013-07-25 12:50:00,
2013-07-25 08:56:00,50.9,50.6,29.98,NE,42,0.0,3.0,99,0.00,,---,0.01,VWS V13.01,2013-07-25 12:56:00,
2013-07-25 09:01:00,51.2,50.9,29.98,NE,42,0.0,1.0,99,0.00,,---,0.01,VWS V13.01,2013-07-25 13:01:00,
2013-07-25 09:06:00,51.7,51.4,29.98,NW,314,0.0,1.0,99,0.00,,---,0.01,VWS V13.01,2013-07-25 13:06:00,
2013-07-25 09:12:00,52.7,52.4,29.98,NW,315,0.0,1.0,99,0.00,,---,0.01,VWS V13.01,2013-07-25 13:12:00,
2013-07-25 09:17:00,53.2,52.9,29.98,NW,314,0.0,1.0,99,0.00,,---,0.01,VWS V13.01,2013-07-25 13:17:00,
2013-07-25 09:22:00,53.5,53.2,29.98,NW,315,0.0,1.0,99,0.00,,---,0.01,VWS V13.01,2013-07-25 13:22:00,
2013-07-25 09:27:00,54.4,54.1,29.98,NW,315,0.0,1.0,99,0.00,,---,0.01,VWS V13.01,2013-07-25 13:27:00,
2013-07-25 09:32:00,55.3,55.0,29.98,NNW,331,0.0,0.0,99,0.00,,---,0.01,VWS V13.01,2013-07-25 13:32:00,
2013-07-25 09:38:00,56.7,56.1,29.98,NNW,331,0.0,0.0,98,0.00,,---,0.01,VWS V13.01,2013-07-25 13:38:00,
2013-07-25 09:43:00,58.1,57.5,29.98,NNW,341,0.0,0.0,98,0.00,,---,0.01,VWS V13.01,2013-07-25 13:43:00,
2013-07-25 09:48:00,58.4,57.0,29.98,NNW,342,0.0,2.0,95,0.00,,---,0.01,VWS V13.01,2013-07-25 13:48:00,
2013-07-25 09:53:00,59.0,56.4,29.98,NNW,346,0.0,2.0,91,0.00,,---,0.01,VWS V13.01,2013-07-25 13:53:00,
2013-07-25 09:58:00,60.0,55.5,29.97,NE,38,0.0,5.0,85,0.00,,---,0.01,VWS V13.01,2013-07-25 13:58:00,
2013-07-25 10:03:00,61.0,55.5,29.97,East,86,4.0,6.0,82,0.00,,---,0.01,VWS V13.01,2013-07-25 14:03:00,
2013-07-25 10:08:00,61.5,54.6,29.97,East,92,3.0,7.0,78,0.00,,---,0.01,VWS V13.01,2013-07-25 14:08:00,
2013-07-25 10:14:00,61.8,53.8,29.97,East,89,2.0,8.0,75,0.00,,---,0.01,VWS V13.01,2013-07-25 14:14:00,
2013-07-25 10:19:00,62.2,53.8,29.96,East,87,5.0,8.0,74,0.00,,---,0.01,VWS V13.01,2013-07-25 14:19:00,
2013-07-25 10:25:00,62.3,53.2,29.97,ESE,114,0.0,10.0,72,0.00,,---,0.01,VWS V13.01,2013-07-25 14:25:00,
2013-07-25 10:30:00,62.9,54.1,29.96,ESE,106,0.0,10.0,73,0.00,,---,0.01,VWS V13.01,2013-07-25 14:30:00,
2013-07-25 10:35:00,63.1,53.6,29.96,East,101,0.0,7.0,71,0.00,,---,0.01,VWS V13.01,2013-07-25 14:35:00,
2013-07-25 10:40:00,63.5,53.5,29.96,ESE,103,0.0,8.0,70,0.00,,---,0.01,VWS V13.01,2013-07-25 14:40:00,
2013-07-25 10:45:00,63.9,53.5,29.96,East,95,0.0,8.0,69,0.00,,---,0.01,VWS V13.01,2013-07-25 14:45:00,
2013-07-25 10:50:00,64.3,53.9,29.96,East,84,0.0,8.0,69,0.00,,---,0.01,VWS V13.01,2013-07-25 14:50:00,
2013-07-25 10:56:00,64.2,53.0,29.96,SE,139,0.0,8.0,67,0.00,,---,0.01,VWS V13.01,2013-07-25 14:56:00,
2013-07-25 11:01:00,64.8,54.4,29.96,ENE,58,0.0,14.0,69,0.00,,---,0.01,VWS V13.01,2013-07-25 15:01:00,
2013-07-25 11:06:00,65.5,54.3,29.96,NNE,29,7.0,14.0,67,0.00,,---,0.01,VWS V13.01,2013-07-25 15:06:00,
2013-07-25 11:12:00,65.0,53.0,29.96,ENE,71,0.0,14.0,65,0.00,,---,0.01,VWS V13.01,2013-07-25 15:12:00,
2013-07-25 11:17:00,65.2,52.7,29.96,NNE,28,0.0,14.0,64,0.00,,---,0.01,VWS V13.01,2013-07-25 15:17:00,
2013-07-25 11:22:00,65.4,54.2,29.96,ESE,108,5.0,14.0,67,0.00,,---,0.01,VWS V13.01,2013-07-25 15:22:00,
2013-07-25 11:27:00,65.6,54.4,29.95,East,94,3.0,14.0,67,0.00,,---,0.01,VWS V13.01,2013-07-25 15:27:00,
2013-07-25 11:32:00,66.1,54.4,29.96,ENE,76,0.0,1.0,66,0.00,,---,0.01,VWS V13.01,2013-07-25 15:32:00,
2013-07-25 11:37:00,66.4,53.4,29.96,East,98,5.0,8.0,63,0.00,,---,0.01,VWS V13.01,2013-07-25 15:37:00,
2013-07-25 11:43:00,66.8,53.4,29.95,East,96,0.0,8.0,62,0.00,,---,0.01,VWS V13.01,2013-07-25 15:43:00,
2013-07-25 11:48:00,66.8,54.2,29.95,East,79,0.0,10.0,64,0.00,,---,0.01,VWS V13.01,2013-07-25 15:48:00,
2013-07-25 11:53:00,67.0,55.7,29.95,ESE,102,7.0,10.0,67,0.00,,---,0.01,VWS V13.01,2013-07-25 15:53:00,
2013-07-25 11:58:00,67.4,55.2,29.95,NE,40,0.0,10.0,65,0.00,,---,0.01,VWS V13.01,2013-07-25 15:58:00,
2013-07-25 12:04:00,67.2,52.4,29.95,ENE,72,0.0,8.0,59,0.00,,---,0.01,VWS V13.01,2013-07-25 16:04:00,
2013-07-25 12:09:00,67.7,52.4,29.95,NNE,18,4.0,8.0,58,0.00,,---,0.01,VWS V13.01,2013-07-25 16:09:00,
2013-07-25 12:14:00,68.4,53.1,29.95,NE,45,0.0,8.0,58,0.00,,---,0.01,VWS V13.01,2013-07-25 16:14:00,
2013-07-25 12:19:00,68.5,54.1,29.95,East,94,0.0,9.0,60,0.00,,---,0.01,VWS V13.01,2013-07-25 16:19:00,
2013-07-25 12:24:00,68.3,52.5,29.95,East,91,4.0,14.0,57,0.00,,---,0.01,VWS V13.01,2013-07-25 16:24:00,
2013-07-25 12:29:00,68.5,52.2,29.94,ENE,76,2.0,14.0,56,0.00,,---,0.01,VWS V13.01,2013-07-25 16:29:00,
2013-07-25 12:35:00,68.6,54.2,29.95,East,87,0.0,4.0,60,0.00,,---,0.01,VWS V13.01,2013-07-25 16:35:00,
2013-07-25 12:40:00,68.6,53.2,29.95,ENE,72,0.0,4.0,58,0.00,,---,0.01,VWS V13.01,2013-07-25 16:40:00,
2013-07-25 12:45:00,68.5,52.7,29.95,ENE,76,7.0,11.0,57,0.00,,---,0.01,VWS V13.01,2013-07-25 16:45:00,
2013-07-25 12:50:00,68.5,52.7,29.95,NE,53,0.0,11.0,57,0.00,,---,0.01,VWS V13.01,2013-07-25 16:50:00,
2013-07-25 12:56:00,68.9,52.1,29.94,ESE,108,9.0,11.0,55,0.00,,---,0.01,VWS V13.01,2013-07-25 16:56:00,
2013-07-25 13:01:00,69.2,52.8,29.94,ESE,107,0.0,7.0,56,0.00,,---,0.01,VWS V13.01,2013-07-25 17:01:00,
2013-07-25 13:06:00,69.3,52.5,29.94,NNE,32,0.0,11.0,55,0.00,,---,0.01,VWS V13.01,2013-07-25 17:06:00,
2013-07-25 13:11:00,69.4,53.5,29.94,NNE,15,0.0,11.0,57,0.00,,---,0.01,VWS V13.01,2013-07-25 17:11:00,
2013-07-25 13:16:00,69.5,53.1,29.94,NNE,21,0.0,11.0,56,0.00,,---,0.01,VWS V13.01,2013-07-25 17:16:00,
2013-07-25 13:21:00,69.5,53.6,29.94,East,90,0.0,11.0,57,0.00,,---,0.01,VWS V13.01,2013-07-25 17:21:00,
2013-07-25 13:27:00,69.8,53.9,29.94,East,88,0.0,11.0,57,0.00,,---,0.01,VWS V13.01,2013-07-25 17:27:00,
2013-07-25 13:32:00,70.4,54.9,29.94,ENE,61,2.0,7.0,58,0.00,,---,0.01,VWS V13.01,2013-07-25 17:32:00,
2013-07-25 13:37:00,70.3,54.8,29.93,East,98,0.0,8.0,58,0.00,,---,0.01,VWS V13.01,2013-07-25 17:37:00,
2013-07-25 13:42:00,70.3,56.2,29.93,ENE,67,0.0,8.0,61,0.00,,---,0.01,VWS V13.01,2013-07-25 17:42:00,
2013-07-25 13:48:00,70.6,54.6,29.93,ENE,76,4.0,8.0,57,0.00,,---,0.01,VWS V13.01,2013-07-25 17:48:00,
2013-07-25 13:53:00,70.6,56.1,29.93,East,87,0.0,11.0,60,0.00,,---,0.01,VWS V13.01,2013-07-25 17:53:00,
2013-07-25 13:58:00,71.0,55.0,29.93,East,90,9.0,11.0,57,0.00,,---,0.01,VWS V13.01,2013-07-25 17:58:00,
2013-07-25 14:03:00,70.4,54.5,29.93,East,96,0.0,15.0,57,0.00,,---,0.01,VWS V13.01,2013-07-25 18:03:00,
2013-07-25 14:08:00,70.1,55.1,29.93,SSE,154,0.0,15.0,59,0.00,,---,0.01,VWS V13.01,2013-07-25 18:08:00,
2013-07-25 14:14:00,70.9,54.0,29.92,East,92,4.0,15.0,55,0.00,,---,0.01,VWS V13.01,2013-07-25 18:14:00,
2013-07-25 14:19:00,70.8,56.2,29.92,ESE,118,10.0,15.0,60,0.00,,---,0.01,VWS V13.01,2013-07-25 18:19:00,
2013-07-25 14:24:00,70.6,53.2,29.92,NE,46,0.0,15.0,54,0.00,,---,0.01,VWS V13.01,2013-07-25 18:24:00,
2013-07-25 14:29:00,71.1,55.1,29.92,NE,42,0.0,15.0,57,0.00,,---,0.01,VWS V13.01,2013-07-25 18:29:00,
2013-07-25 14:34:00,71.4,54.4,29.92,NE,46,0.0,5.0,55,0.00,,---,0.01,VWS V13.01,2013-07-25 18:34:00,
2013-07-25 14:39:00,72.0,55.0,29.92,ENE,67,0.0,8.0,55,0.00,,---,0.01,VWS V13.01,2013-07-25 18:39:00,
2013-07-25 14:45:00,72.0,56.4,29.92,East,88,0.0,10.0,58,0.00,,---,0.01,VWS V13.01,2013-07-25 18:45:00,
2013-07-25 14:50:00,72.0,55.0,29.92,East,82,0.0,10.0,55,0.00,,---,0.01,VWS V13.01,2013-07-25 18:50:00,
2013-07-25 14:55:00,71.9,56.8,29.92,ESE,115,3.0,10.0,59,0.00,,---,0.01,VWS V13.01,2013-07-25 18:55:00,
2013-07-25 15:00:00,72.0,56.9,29.92,ESE,102,0.0,6.0,59,0.00,,---,0.01,VWS V13.01,2013-07-25 19:00:00,
2013-07-25 15:05:00,72.2,57.6,29.91,East,94,4.0,9.0,60,0.00,,---,0.01,VWS V13.01,2013-07-25 19:05:00,
2013-07-25 15:11:00,72.1,56.0,29.91,ENE,74,5.0,9.0,57,0.00,,---,0.01,VWS V13.01,2013-07-25 19:11:00,
2013-07-25 15:16:00,72.2,55.2,29.91,NE,53,0.0,9.0,55,0.00,,---,0.01,VWS V13.01,2013-07-25 19:16:00,
2013-07-25 15:21:00,72.3,55.2,29.91,East,96,5.0,12.0,55,0.00,,---,0.01,VWS V13.01,2013-07-25 19:21:00,
2013-07-25 15:26:00,72.0,56.0,29.91,East,96,6.0,12.0,57,0.00,,---,0.01,VWS V13.01,2013-07-25 19:26:00,
2013-07-25 15:32:00,72.2,54.1,29.91,SE,145,0.0,6.0,53,0.00,,---,0.01,VWS V13.01,2013-07-25 19:32:00,
2013-07-25 15:37:00,72.4,55.3,29.91,ENE,62,0.0,7.0,55,0.00,,---,0.01,VWS V13.01,2013-07-25 19:37:00,
2013-07-25 15:42:00,72.9,56.3,29.91,ENE,63,0.0,7.0,56,0.00,,---,0.01,VWS V13.01,2013-07-25 19:42:00,
2013-07-25 15:47:00,73.7,57.5,29.91,SSE,153,5.0,9.0,57,0.00,,---,0.01,VWS V13.01,2013-07-25 19:47:00,
2013-07-25 15:52:00,72.7,54.6,29.91,ESE,105,6.0,13.0,53,0.00,,---,0.01,VWS V13.01,2013-07-25 19:52:00,
2013-07-25 15:57:00,72.4,54.3,29.91,East,92,6.0,13.0,53,0.00,,---,0.01,VWS V13.01,2013-07-25 19:57:00,
2013-07-25 16:03:00,72.2,54.7,29.90,ESE,104,0.0,8.0,54,0.00,,---,0.01,VWS V13.01,2013-07-25 20:03:00,
2013-07-25 16:08:00,72.2,54.1,29.90,ESE,117,5.0,10.0,53,0.00,,---,0.01,VWS V13.01,2013-07-25 20:08:00,
2013-07-25 16:13:00,72.4,55.3,29.90,ESE,103,0.0,10.0,55,0.00,,---,0.01,VWS V13.01,2013-07-25 20:13:00,
2013-07-25 16:18:00,73.1,56.5,29.90,ESE,109,6.0,10.0,56,0.00,,---,0.01,VWS V13.01,2013-07-25 20:18:00,
2013-07-25 16:23:00,73.2,55.6,29.90,ENE,61,0.0,14.0,54,0.00,,---,0.01,VWS V13.01,2013-07-25 20:23:00,
2013-07-25 16:28:00,73.2,55.6,29.90,North,355,0.0,14.0,54,0.00,,---,0.01,VWS V13.01,2013-07-25 20:28:00,
2013-07-25 16:34:00,73.2,55.6,29.90,East,86,0.0,7.0,54,0.00,,---,0.01,VWS V13.01,2013-07-25 20:34:00,
2013-07-25 16:39:00,72.9,57.3,29.90,East,85,0.0,7.0,58,0.00,,---,0.01,VWS V13.01,2013-07-25 20:39:00,
2013-07-25 16:44:00,73.6,58.4,29.91,ENE,69,0.0,8.0,59,0.00,,---,0.01,VWS V13.01,2013-07-25 20:44:00,
2013-07-25 16:49:00,74.3,56.6,29.91,NE,53,0.0,8.0,54,0.00,,---,0.01,VWS V13.01,2013-07-25 20:49:00,
2013-07-25 16:54:00,75.0,57.8,29.91,NE,52,0.0,8.0,55,0.00,,---,0.01,VWS V13.01,2013-07-25 20:54:00,
2013-07-25 16:59:00,74.6,57.9,29.91,East,88,0.0,8.0,56,0.00,,---,0.01,VWS V13.01,2013-07-25 20:59:00,
2013-07-25 17:05:00,74.0,55.3,29.91,ENE,71,0.0,7.0,52,0.00,,---,0.01,VWS V13.01,2013-07-25 21:05:00,
2013-07-25 17:10:00,74.2,57.5,29.91,NE,37,1.0,12.0,56,0.00,,---,0.01,VWS V13.01,2013-07-25 21:10:00,
2013-07-25 17:15:00,73.7,55.5,29.91,NNE,21,0.0,12.0,53,0.00,,---,0.01,VWS V13.01,2013-07-25 21:15:00,
2013-07-25 17:20:00,74.2,57.0,29.91,NNE,21,0.0,12.0,55,0.00,,---,0.01,VWS V13.01,2013-07-25 21:20:00,
2013-07-25 17:26:00,74.5,56.3,29.91,NNE,33,1.0,12.0,53,0.00,,---,0.01,VWS V13.01,2013-07-25 21:26:00,
2013-07-25 17:31:00,74.8,56.0,29.91,North,355,0.0,1.0,52,0.00,,---,0.01,VWS V13.01,2013-07-25 21:31:00,
2013-07-25 17:37:00,73.9,55.7,29.92,NE,55,0.0,6.0,53,0.00,,---,0.01,VWS V13.01,2013-07-25 21:37:00,
2013-07-25 17:42:00,73.5,55.9,29.92,NE,48,0.0,6.0,54,0.00,,---,0.01,VWS V13.01,2013-07-25 21:42:00,
2013-07-25 17:47:00,73.3,55.7,29.92,ENE,71,0.0,6.0,54,0.00,,---,0.01,VWS V13.01,2013-07-25 21:47:00,
2013-07-25 17:52:00,73.2,55.6,29.91,East,88,0.0,6.0,54,0.00,,---,0.01,VWS V13.01,2013-07-25 21:52:00,
2013-07-25 17:57:00,73.1,55.5,29.91,East,82,0.0,6.0,54,0.00,,---,0.01,VWS V13.01,2013-07-25 21:57:00,
2013-07-25 18:03:00,72.9,56.8,29.92,ENE,63,0.0,6.0,57,0.00,,---,0.01,VWS V13.01,2013-07-25 22:03:00,
2013-07-25 18:08:00,72.9,56.8,29.91,ENE,65,0.0,6.0,57,0.00,,---,0.01,VWS V13.01,2013-07-25 22:08:00,
2013-07-25 18:13:00,73.3,56.2,29.91,ENE,67,0.0,6.0,55,0.00,,---,0.01,VWS V13.01,2013-07-25 22:13:00,
2013-07-25 18:18:00,73.6,57.0,29.90,NNE,32,0.0,6.0,56,0.00,,---,0.01,VWS V13.01,2013-07-25 22:18:00,
2013-07-25 18:23:00,73.2,55.6,29.91,NE,39,0.0,6.0,54,0.00,,---,0.01,VWS V13.01,2013-07-25 22:23:00,
2013-07-25 18:29:00,73.1,56.5,29.91,NE,45,0.0,6.0,56,0.00,,---,0.01,VWS V13.01,2013-07-25 22:29:00,
2013-07-25 18:34:00,72.8,55.2,29.91,NE,46,0.0,5.0,54,0.00,,---,0.01,VWS V13.01,2013-07-25 22:34:00,
2013-07-25 18:39:00,73.0,56.4,29.91,NE,46,5.0,5.0,56,0.00,,---,0.01,VWS V13.01,2013-07-25 22:39:00,
2013-07-25 18:44:00,72.8,56.2,29.91,NE,51,0.0,5.0,56,0.00,,---,0.01,VWS V13.01,2013-07-25 22:44:00,
2013-07-25 18:50:00,72.4,56.3,29.91,NE,51,0.0,5.0,57,0.00,,---,0.01,VWS V13.01,2013-07-25 22:50:00,
2013-07-25 18:55:00,72.5,56.9,29.90,NE,51,0.0,5.0,58,0.00,,---,0.01,VWS V13.01,2013-07-25 22:55:00,
2013-07-25 19:00:00,72.8,56.2,29.90,NE,51,0.0,0.0,56,0.00,,---,0.01,VWS V13.01,2013-07-25 23:00:00,
2013-07-25 19:05:00,72.4,58.7,29.90,ENE,65,0.0,4.0,62,0.00,,---,0.01,VWS V13.01,2013-07-25 23:05:00,
2013-07-25 19:10:00,71.8,56.7,29.90,ENE,66,0.0,5.0,59,0.00,,---,0.01,VWS V13.01,2013-07-25 23:10:00,
2013-07-25 19:15:00,71.5,56.4,29.91,ENE,69,4.0,5.0,59,0.00,,---,0.01,VWS V13.01,2013-07-25 23:15:00,
2013-07-25 19:20:00,71.3,56.7,29.91,ENE,70,0.0,5.0,60,0.00,,---,0.01,VWS V13.01,2013-07-25 23:20:00,
2013-07-25 19:27:00,71.2,56.2,29.91,ENE,69,0.0,5.0,59,0.00,,---,0.01,VWS V13.01,2013-07-25 23:27:00,
2013-07-25 19:32:00,70.9,55.9,29.90,ENE,73,0.0,1.0,59,0.00,,---,0.01,VWS V13.01,2013-07-25 23:32:00,
2013-07-25 19:37:00,70.5,56.0,29.90,ENE,73,0.0,1.0,60,0.00,,---,0.01,VWS V13.01,2013-07-25 23:37:00,
2013-07-25 19:42:00,70.0,56.0,29.90,ENE,72,0.0,1.0,61,0.00,,---,0.01,VWS V13.01,2013-07-25 23:42:00,
2013-07-25 19:48:00,69.9,58.9,29.90,ENE,73,0.0,1.0,68,0.00,,---,0.01,VWS V13.01,2013-07-25 23:48:00,
2013-07-25 19:53:00,69.5,60.1,29.90,ENE,72,0.0,1.0,72,0.00,,---,0.01,VWS V13.01,2013-07-25 23:53:00,
2013-07-25 19:58:00,69.4,60.4,29.90,ENE,73,0.0,1.0,73,0.00,,---,0.01,VWS V13.01,2013-07-25 23:58:00,
2013-07-25 20:03:00,68.8,59.4,29.90,ENE,72,0.0,0.0,72,0.00,,---,0.01,VWS V13.01,2013-07-26 00:03:00,
2013-07-25 20:08:00,68.2,59.6,29.90,ENE,73,0.0,0.0,74,0.00,,---,0.01,VWS V13.01,2013-07-26 00:08:00,
2013-07-25 20:14:00,67.6,59.0,29.90,ENE,73,0.0,0.0,74,0.00,,---,0.01,VWS V13.01,2013-07-26 00:14:00,
2013-07-25 20:19:00,66.8,58.3,29.90,ENE,72,0.0,0.0,74,0.00,,---,0.01,VWS V13.01,2013-07-26 00:19:00,
2013-07-25 20:24:00,66.1,58.7,29.90,ENE,72,0.0,0.0,77,0.00,,---,0.01,VWS V13.01,2013-07-26 00:24:00,
2013-07-25 20:29:00,65.0,58.3,29.90,ENE,73,0.0,0.0,79,0.00,,---,0.01,VWS V13.01,2013-07-26 00:29:00,
2013-07-25 20:35:00,64.0,58.1,29.90,ENE,73,0.0,0.0,81,0.00,,---,0.01,VWS V13.01,2013-07-26 00:35:00,
2013-07-25 20:40:00,63.0,57.4,29.90,ENE,73,0.0,0.0,82,0.00,,---,0.01,VWS V13.01,2013-07-26 00:40:00,
2013-07-25 20:45:00,62.0,56.8,29.90,ENE,72,0.0,0.0,83,0.00,,---,0.01,VWS V13.01,2013-07-26 00:45:00,
2013-07-25 20:50:00,61.1,56.6,29.90,ENE,72,0.0,0.0,85,0.00,,---,0.01,VWS V13.01,2013-07-26 00:50:00,
2013-07-25 20:55:00,60.6,56.7,29.90,ENE,72,0.0,0.0,87,0.00,,---,0.01,VWS V13.01,2013-07-26 00:55:00,
2013-07-25 21:00:00,60.3,56.4,29.90,ENE,73,0.0,0.0,87,0.00,,---,0.01,VWS V13.01,2013-07-26 01:00:00,
2013-07-25 21:05:00,60.1,56.5,29.91,ENE,73,0.0,0.0,88,0.00,,---,0.01,VWS V13.01,2013-07-26 01:05:00,
2013-07-25 21:11:00,59.9,56.7,29.91,ENE,73,0.0,0.0,89,0.00,,---,0.01,VWS V13.01,2013-07-26 01:11:00,
2013-07-25 21:17:00,59.0,55.8,29.91,ENE,73,0.0,0.0,89,0.00,,---,0.01,VWS V13.01,2013-07-26 01:17:00,
2013-07-25 21:22:00,59.0,56.1,29.92,ENE,73,0.0,0.0,90,0.00,,---,0.01,VWS V13.01,2013-07-26 01:22:00,
2013-07-25 21:27:00,58.8,56.2,29.92,ENE,72,0.0,0.0,91,0.00,,---,0.01,VWS V13.01,2013-07-26 01:27:00,
2013-07-25 21:33:00,58.5,55.9,29.92,ENE,73,0.0,0.0,91,0.00,,---,0.01,VWS V13.01,2013-07-26 01:33:00,
2013-07-25 21:38:00,58.1,55.5,29.92,ENE,72,0.0,0.0,91,0.00,,---,0.01,VWS V13.01,2013-07-26 01:38:00,
2013-07-25 21:43:00,57.7,55.1,29.94,ENE,73,0.0,0.0,91,0.00,,---,0.01,VWS V13.01,2013-07-26 01:43:00,
2013-07-25 21:48:00,57.4,55.1,29.94,ENE,73,0.0,0.0,92,0.00,,---,0.01,VWS V13.01,2013-07-26 01:48:00,
2013-07-25 21:53:00,57.0,54.7,29.94,ENE,72,0.0,0.0,92,0.00,,---,0.01,VWS V13.01,2013-07-26 01:53:00,
2013-07-25 21:58:00,56.9,54.6,29.94,ENE,73,0.0,0.0,92,0.00,,---,0.01,VWS V13.01,2013-07-26 01:58:00,
2013-07-25 22:04:00,56.6,54.3,29.94,ENE,72,0.0,0.0,92,0.00,,---,0.01,VWS V13.01,2013-07-26 02:04:00,
2013-07-25 22:09:00,56.2,53.9,29.94,ENE,73,0.0,0.0,92,0.00,,---,0.01,VWS V13.01,2013-07-26 02:09:00,
2013-07-25 22:14:00,56.0,54.0,29.94,ENE,73,0.0,0.0,93,0.00,,---,0.01,VWS V13.01,2013-07-26 02:14:00,
2013-07-25 22:19:00,55.8,53.8,29.95,ENE,73,0.0,0.0,93,0.00,,---,0.01,VWS V13.01,2013-07-26 02:19:00,
2013-07-25 22:25:00,55.7,53.7,29.95,ENE,72,0.0,0.0,93,0.00,,---,0.01,VWS V13.01,2013-07-26 02:25:00,
2013-07-25 22:30:00,55.6,53.9,29.95,ENE,73,0.0,0.0,94,0.00,,---,0.01,VWS V13.01,2013-07-26 02:30:00,
2013-07-25 22:35:00,55.5,53.8,29.95,ENE,72,0.0,0.0,94,0.00,,---,0.01,VWS V13.01,2013-07-26 02:35:00,
2013-07-25 22:40:00,55.4,53.7,29.95,ENE,72,0.0,0.0,94,0.00,,---,0.01,VWS V13.01,2013-07-26 02:40:00,
2013-07-25 22:45:00,55.1,53.4,29.95,ENE,72,0.0,0.0,94,0.00,,---,0.01,VWS V13.01,2013-07-26 02:45:00,
2013-07-25 22:50:00,54.8,53.1,29.95,ENE,73,0.0,0.0,94,0.00,,---,0.01,VWS V13.01,2013-07-26 02:50:00,
2013-07-25 22:56:00,54.5,52.8,29.95,ENE,73,0.0,0.0,94,0.00,,---,0.01,VWS V13.01,2013-07-26 02:56:00,
2013-07-25 23:01:00,54.4,52.7,29.95,ENE,73,0.0,0.0,94,0.00,,---,0.01,VWS V13.01,2013-07-26 03:01:00,
2013-07-25 23:06:00,54.2,52.5,29.95,ENE,73,0.0,0.0,94,0.00,,---,0.01,VWS V13.01,2013-07-26 03:06:00,
2013-07-25 23:12:00,54.0,52.6,29.95,ENE,73,0.0,0.0,95,0.00,,---,0.01,VWS V13.01,2013-07-26 03:12:00,
2013-07-25 23:17:00,53.8,52.4,29.96,ENE,73,0.0,0.0,95,0.00,,---,0.01,VWS V13.01,2013-07-26 03:17:00,
2013-07-25 23:22:00,53.6,52.2,29.96,ENE,73,0.0,0.0,95,0.00,,---,0.01,VWS V13.01,2013-07-26 03:22:00,
2013-07-25 23:27:00,53.5,52.1,29.96,ENE,72,0.0,0.0,95,0.00,,---,0.01,VWS V13.01,2013-07-26 03:27:00,
2013-07-25 23:32:00,53.5,52.1,29.96,ENE,72,0.0,0.0,95,0.00,,---,0.01,VWS V13.01,2013-07-26 03:32:00,
2013-07-25 23:38:00,53.4,52.0,29.96,ENE,72,0.0,0.0,95,0.00,,---,0.01,VWS V13.01,2013-07-26 03:38:00,
2013-07-25 23:43:00,53.3,51.9,29.96,ENE,72,0.0,0.0,95,0.00,,---,0.01,VWS V13.01,2013-07-26 03:43:00,
2013-07-25 23:48:00,53.1,51.7,29.97,ENE,73,0.0,0.0,95,0.00,,---,0.01,VWS V13.01,2013-07-26 03:48:00,
2013-07-25 23:53:00,52.9,51.5,29.97,ENE,73,0.0,0.0,95,0.00,,---,0.01,VWS V13.01,2013-07-26 03:53:00,
2013-07-25 23:58:00,52.8,51.4,29.97,ENE,73,0.0,0.0,95,0.00,,---,0.01,VWS V13.01,2013-07-26 03:58:00,